Terminal Aerodrome Forecast
Issued by NWS

Home | Current Version | Previous Version | Text Only | Print | Product List | Glossary On
Versions: 1 2 3 4 5 6 7 8 9 10 11 12 13 14 15 16 17 18 19 20 21 22 23 24
431
FTUS43 KGRB 240520
TAFCWA
TAF
KCWA 240520Z 2406/2506 34005KT P6SM BKN100
     FM240700 02003KT P6SM VCSH BKN070
      TEMPO 2407/2410 6SM -SHRA BKN040
     FM241300 04004KT P6SM SKC
     FM250100 VRB02KT P6SM SKC
      AMD LTD TO CLD VIS AND WIND TIL 241100=

USA.gov is the U.S. government's official web portal to all federal, state and local government web resources and services.